Data for 07/01/2016

Time Sea-Level Adjusted Pressure Absolute Pressure Temperature Relative Humidity Dew Point   
(mb) (inHg) (mb) (inHg) (C) (F) (%) (C) (F)
00:05 1020 30.12 849 25.07 18.7 65.7 48 7.5 45.5
00:10 1020 30.12 849 25.07 18.7 65.6 48 7.7 45.9
00:15 1020 30.12 849 25.07 18.5 65.3 50 7.9 46.2
00:20 1020 30.12 849 25.07 18.3 65 51 8.1 46.6
00:25 1020 30.12 849 25.07 18.2 64.8 52 8.2 46.8
00:30 1020 30.12 849 25.07 18.1 64.6 53 8.4 47.1
00:35 1020 30.12 849 25.07 18 64.3 53 8.5 47.3
00:40 1020 30.12 849 25.07 17.9 64.2 54 8.6 47.4
00:45 1020 30.12 849 25.07 17.9 64.1 54 8.6 47.5
00:50 1020 30.12 849 25.07 17.8 64 55 8.6 47.6
00:55 1020 30.12 849 25.07 17.7 63.8 55 8.7 47.6
01:00 1020 30.12 849 25.07 17.6 63.6 56 8.7 47.7
01:05 1020 30.12 849 25.07 17.5 63.6 56 8.7 47.7
01:10 1020 30.12 849 25.07 17.6 63.7 56 8.8 47.9
01:15 1020 30.12 849 25.07 17.5 63.4 56 8.7 47.7
01:20 1020 30.12 849 25.07 17.4 63.3 56 8.7 47.7
01:25 1020 30.12 849 25.07 17.4 63.2 56 8.7 47.7
01:30 1020 30.12 849 25.07 17.4 63.2 57 8.9 47.9
01:35 1020 30.12 849 25.07 17.2 62.9 58 9 48.2
01:40 1020 30.12 849 25.07 17 62.5 59 8.9 48
01:45 1020 30.12 849 25.07 16.8 62.3 59 8.9 48
01:50 1020 30.12 849 25.07 16.7 62 60 8.9 48.1
01:55 1020 30.12 849 25.07 16.5 61.6 61 9 48.1
02:00 1020 30.12 849 25.07 16.3 61.3 62 9 48.2
02:05 1020 30.12 849 25.07 16.2 61.1 62 8.9 48
02:10 1020 30.12 849 25.07 16.1 60.9 62 8.9 47.9
02:15 1020 30.12 849 25.07 16.2 61.1 61 8.6 47.6
02:20 1020 30.12 849 25.07 16.3 61.3 60 8.5 47.3
02:25 1020 30.12 849 25.07 16.1 61 59 8.2 46.7
02:30 1020 30.12 849 25.07 16.2 61.1 59 8.2 46.8
02:35 1020 30.12 849 25.07 16.1 60.9 59 8.1 46.6
02:40 1020 30.12 849 25.07 15.8 60.4 60 8.1 46.6
02:45 1020 30.12 849 25.07 15.7 60.2 61 8.2 46.7
02:50 1020 30.12 849 25.07 15.4 59.7 62 8.1 46.7
02:55 1020 30.12 849 25.07 15.2 59.3 63 8.2 46.7
03:00 1020 30.12 849 25.07 15.1 59.2 63 8.3 47
03:05 1020 30.12 849 25.07 15.1 59.3 64 8.5 47.3
03:10 1020 30.12 849 25.07 15.1 59.2 64 8.5 47.2
03:15 1020 30.12 849 25.07 15.1 59.2 64 8.5 47.2
03:20 1020 30.12 849 25.07 15.1 59.2 64 8.4 47
03:25 1020 30.12 849 25.07 15.2 59.3 63 8.3 47
03:30 1020 30.12 849 25.07 15.1 59.2 64 8.4 47.1
03:35 1020 30.12 849 25.07 15.1 59.1 64 8.3 46.9
03:40 1020 30.12 849 25.07 15.1 59.1 64 8.3 46.9
03:45 1020 30.12 849 25.07 15 59 63 8 46.4
03:50 1020 30.12 849 25.07 15 59 65 8.6 47.5
03:55 1020 30.12 849 25.07 15.1 59.2 63 8.1 46.6
04:00 1020 30.12 849 25.07 15 59 65 8.5 47.4
04:05 1020 30.12 849 25.07 14.9 58.8 63 8.1 46.5
04:10 1020 30.12 849 25.07 14.6 58.2 64 7.9 46.3
04:15 1020 30.12 849 25.07 14.5 58 64 7.7 45.8
04:20 1020 30.12 849 25.07 14.5 58.2 64 7.8 46
04:25 1020 30.12 849 25.07 14.6 58.4 63 7.6 45.8
04:30 1020 30.12 849 25.07 14.8 58.7 64 8.2 46.7
04:35 1020 30.12 849 25.07 15.2 59.3 60 7.4 45.3
04:40 1020 30.12 849 25.07 15.1 59.2 61 7.7 45.8
04:45 1020 30.12 849 25.07 14.8 58.6 61 7.4 45.4
04:50 1020 30.12 849 25.07 14.5 58.2 61 7.2 44.9
04:55 1020 30.12 849 25.07 14.6 58.2 61 7.2 45
05:00 1020 30.12 849 25.07 14.2 57.6 63 7.3 45.2
05:05 1020 30.12 849 25.07 14.1 57.3 64 7.4 45.2
05:10 1020 30.12 849 25.07 13.7 56.6 65 7.3 45.2
05:15 1020 30.12 849 25.07 13.8 56.8 63 7 44.6
05:20 1020 30.12 849 25.07 14 57.2 62 7 44.6
05:25 1020 30.12 849 25.07 14 57.3 63 7.2 44.9
05:30 1020 30.12 849 25.07 14.2 57.5 62 7.1 44.8
05:35 1020 30.12 849 25.07 14.3 57.7 62 7.2 44.9
05:40 1020 30.12 849 25.07 14.4 57.9 62 7.3 45.2
05:45 1020 30.12 849 25.07 14.2 57.5 64 7.4 45.4
05:50 1020 30.12 849 25.07 14.1 57.3 64 7.5 45.5
05:55 1020 30.12 849 25.07 14.3 57.7 64 7.6 45.7
06:00 1020 30.12 849 25.07 14.5 58.2 62 7.4 45.3
06:05 1020 30.12 849 25.07 14.7 58.4 62 7.5 45.4
06:10 1020 30.12 849 25.07 14.9 58.8 60 7.3 45.2
06:15 1020 30.12 850 25.1 15.2 59.3 61 7.7 45.8
06:20 1020 30.12 850 25.1 15.3 59.6 61 7.9 46.2
06:25 1020 30.12 850 25.1 15.6 60 59 7.8 46
06:30 1020 30.12 850 25.1 15.8 60.5 58 7.7 45.8
06:35 1020 30.12 850 25.1 16.1 60.9 59 8.2 46.7
06:40 1020 30.12 850 25.1 16.6 61.8 56 8 46.4
06:45 1020 30.12 850 25.1 16.9 62.5 55 8 46.4
06:50 1020 30.12 850 25.1 17.2 62.9 55 8.2 46.8
06:55 1020 30.12 850 25.1 17.4 63.2 56 8.6 47.4
07:00 1021 30.15 850 25.1 17.4 63.3 54 8.2 46.7
07:05 1021 30.15 850 25.1 18.1 64.6 53 8.5 47.3
07:10 1020 30.12 850 25.1 18.2 64.7 52 8.3 47
07:15 1020 30.12 850 25.1 18.5 65.4 50 8.1 46.6
07:20 1020 30.12 850 25.1 18.9 66.1 50 8.4 47.2
07:25 1020 30.12 850 25.1 19.1 66.4 49 8.2 46.7
07:30 1020 30.12 850 25.1 19.5 67.1 46 7.8 46
07:35 1021 30.15 850 25.1 20.3 68.6 43 7.4 45.3
07:40 1021 30.15 850 25.1 20.8 69.5 42 7.5 45.5
07:45 1021 30.15 850 25.1 21.5 70.7 40 7.4 45.4
07:50 1021 30.15 850 25.1 21.7 71 39 7.3 45.1
07:55 1021 30.15 850 25.1 21.4 70.5 39 6.9 44.5
08:00 1021 30.15 850 25.1 21.9 71.4 40 7.8 46.1
08:05 1021 30.15 850 25.1 22.4 72.3 38 7.6 45.7
08:10 1021 30.15 850 25.1 21.9 71.4 40 8 46.4
08:15 1021 30.15 850 25.1 21.8 71.3 37 6.7 44.1
08:20 1021 30.15 850 25.1 22.5 72.4 35 6.5 43.7
08:25 1021 30.15 850 25.1 22 71.6 36 6.5 43.8
08:30 1021 30.15 850 25.1 22.4 72.3 36 6.9 44.4
08:35 1021 30.15 850 25.1 22.4 72.3 36 6.8 44.3
08:40 1020 30.12 850 25.1 22.9 73.3 34 6.4 43.5
08:45 1020 30.12 850 25.1 23.5 74.3 33 6.4 43.6
08:50 1020 30.12 850 25.1 23.9 75.1 33 6.8 44.3
08:55 1020 30.12 850 25.1 23.4 74.1 36 7.5 45.6
09:00 1020 30.12 850 25.1 22.8 73.1 35 6.6 43.9
09:05 1020 30.12 850 25.1 22.8 73.1 36 7.2 45
09:10 1020 30.12 850 25.1 23.5 74.3 33 6.4 43.5
09:15 1020 30.12 850 25.1 24.1 75.4 34 7.4 45.3
09:20 1020 30.12 850 25.1 24.7 76.4 32 7.2 44.9
09:25 1020 30.12 850 25.1 24.2 75.5 34 7.6 45.8
09:30 1020 30.12 850 25.1 24.2 75.6 33 7 44.6
09:35 1020 30.12 850 25.1 24 75.3 34 7.3 45.2
09:40 1020 30.12 849 25.07 23.7 74.7 32 6.2 43.2
09:45 1020 30.12 849 25.07 24.4 75.9 32 6.9 44.4
09:50 1020 30.12 849 25.07 24.8 76.7 33 7.8 46
09:55 1020 30.12 849 25.07 23.7 74.6 34 7.1 44.8
10:00 1020 30.12 849 25.07 24.5 76 30 5.9 42.7
10:05 1020 30.12 849 25.07 24.7 76.5 32 7.1 44.8
10:10 1020 30.12 849 25.07 24.5 76.1 33 7.5 45.5
10:15 1020 30.12 849 25.07 25 77 30 6.7 44.1
10:20 1020 30.12 849 25.07 25.5 77.8 31 7.4 45.4
10:25 1020 30.12 849 25.07 24.7 76.5 29 6 42.8
10:30 1020 30.12 849 25.07 25.4 77.7 28 5.8 42.4
10:35 1020 30.12 849 25.07 25.5 77.8 29 6.4 43.5
10:40 1020 30.12 849 25.07 25.4 77.7 27 5.5 41.8
10:45 1020 30.12 849 25.07 25.6 78 27 5.3 41.6
10:50 1020 30.12 849 25.07 26.2 79.2 27 5.8 42.5
10:55 1020 30.12 849 25.07 26.5 79.8 27 6.1 43.1
11:00 1020 30.12 849 25.07 25.7 78.3 26 5 41.1
11:05 1020 30.12 849 25.07 26.2 79.2 25 4.9 40.9
11:10 1020 30.12 849 25.07 26.8 80.2 27 6.5 43.7
11:15 1020 30.12 849 25.07 26.9 80.4 27 6.4 43.4
11:20 1020 30.12 849 25.07 26.8 80.2 25 5.4 41.8
11:25 1020 30.12 849 25.07 26.7 80.1 25 5.5 41.8
11:30 1020 30.12 849 25.07 26.7 80 25 5.5 41.9
11:35 1020 30.12 849 25.07 25.7 78.3 28 6.1 42.9
11:40 1020 30.12 849 25.07 26.5 79.6 25 4.9 40.8
11:45 1020 30.12 849 25.07 27.6 81.7 23 5.2 41.4
11:50 1020 30.12 849 25.07 27.9 82.1 24 5.8 42.4
11:55 1020 30.12 849 25.07 28.4 83.1 23 5.9 42.6
12:00 1019 30.09 849 25.07 28.2 82.8 24 5.9 42.6
12:05 1019 30.09 849 25.07 27.7 81.9 25 6.2 43.2
12:10 1019 30.09 849 25.07 27 80.7 26 6.3 43.3
12:15 1019 30.09 849 25.07 28 82.3 25 6.3 43.4
12:20 1019 30.09 849 25.07 28 82.3 25 6.4 43.5
12:25 1019 30.09 849 25.07 27.8 82.1 23 5.4 41.7
12:30 1019 30.09 849 25.07 27.1 80.9 23 4.3 39.7
12:35 1019 30.09 848 25.04 26.7 80.1 23 4.1 39.4
12:40 1019 30.09 848 25.04 26.9 80.3 23 4.3 39.7
12:45 1019 30.09 848 25.04 27.2 81 23 4.7 40.5
12:50 1019 30.09 848 25.04 27.4 81.3 24 5.3 41.6
12:55 1019 30.09 848 25.04 28.1 82.6 21 4.1 39.4
13:00 1019 30.09 848 25.04 27.5 81.5 25 5.9 42.6
13:05 1019 30.09 848 25.04 28.1 82.7 23 5.1 41.2
13:10 1019 30.09 848 25.04 28.5 83.3 23 5.4 41.7
13:15 1019 30.09 848 25.04 28.5 83.2 24 6 42.7
13:20 1019 30.09 848 25.04 28.4 83.1 22 5.3 41.5
13:25 1019 30.09 848 25.04 28.7 83.7 22 5 40.9
13:30 1019 30.09 848 25.04 28.3 82.9 22 5.1 41.1
13:35 1019 30.09 848 25.04 28.6 83.5 23 5.8 42.4
13:40 1019 30.09 848 25.04 28.1 82.6 23 5.5 41.9
13:45 1019 30.09 848 25.04 28.4 83 22 4.6 40.3
13:50 1019 30.09 848 25.04 28.8 83.8 20 4.1 39.3
13:55 1019 30.09 848 25.04 27.8 82 21 4.1 39.3
14:00 1019 30.09 848 25.04 28 82.4 21 3.7 38.7
14:05 1018 30.06 848 25.04 28.5 83.3 19 2.9 37.2
14:10 1018 30.06 848 25.04 30 85.9 20 4.7 40.4
14:15 1018 30.06 848 25.04 30 86.1 18 3.2 37.8
14:20 1018 30.06 847 25.01 30 86.1 20 4.7 40.5
14:25 1018 30.06 847 25.01 29.8 85.7 18 3.3 38
14:30 1018 30.06 847 25.01 28.9 84 21 4.5 40.1
14:35 1018 30.06 847 25.01 28.8 83.8 20 3.7 38.6
14:40 1018 30.06 847 25.01 29.5 85.1 18 3 37.3
14:45 1018 30.06 847 25.01 29.2 84.6 18 2.4 36.4
14:50 1018 30.06 847 25.01 29.6 85.4 19 3.7 38.7
14:55 1018 30.06 847 25.01 29.7 85.4 18 3 37.4
15:00 1018 30.06 847 25.01 29.6 85.2 19 3.9 39
15:05 1018 30.06 847 25.01 29.3 84.7 18 3.1 37.5
15:10 1018 30.06 847 25.01 29.9 85.9 18 3.2 37.8
15:15 1018 30.06 847 25.01 30 85.9 17 3 37.4
15:20 1018 30.06 847 25.01 29.6 85.2 20 4.5 40.1
15:25 1018 30.06 847 25.01 28.8 83.9 19 3.1 37.6
15:30 1018 30.06 847 25.01 29.8 85.7 17 2.7 36.9
15:35 1017 30.03 847 25.01 29.9 85.7 18 3.3 37.9
15:40 1017 30.03 847 25.01 30.4 86.7 17 3.2 37.8
15:45 1017 30.03 847 25.01 30.3 86.5 18 3.7 38.6
15:50 1017 30.03 846 24.98 29.1 84.4 18 2.8 37.1
15:55 1017 30.03 846 24.98 29.2 84.5 19 3.7 38.6
16:00 1017 30.03 846 24.98 29 84.2 19 3.3 38
16:05 1017 30.03 846 24.98 29.5 85.1 18 3.4 38.1
16:10 1017 30.03 846 24.98 30.1 86.2 17 2.9 37.3
16:15 1017 30.03 846 24.98 30.3 86.6 18 3.6 38.5
16:20 1017 30.03 846 24.98 30.1 86.2 18 3.2 37.7
16:25 1017 30.03 846 24.98 30.5 86.8 17 3.4 38
16:30 1017 30.03 846 24.98 30 86 17 3 37.4
16:35 1017 30.03 846 24.98 29.2 84.6 19 3.4 38.1
16:40 1017 30.03 846 24.98 29.5 85.1 17 2.5 36.4
16:45 1017 30.03 846 24.98 29.4 84.9 18 2.9 37.1
16:50 1017 30.03 846 24.98 29.6 85.3 17 1.9 35.5
16:55 1017 30.03 846 24.98 30.4 86.7 17 3.1 37.6
17:00 1017 30.03 846 24.98 30.6 87.1 16 2.2 35.9
17:05 1017 30.03 846 24.98 30.7 87.3 16 2.4 36.3
17:10 1017 30.03 846 24.98 29.5 85.2 18 3.4 38.1
17:15 1017 30.03 846 24.98 29.3 84.7 18 2.5 36.4
17:20 1017 30.03 846 24.98 29.2 84.6 18 3 37.4
17:25 1017 30.03 846 24.98 28.8 83.9 19 3.5 38.3
17:30 1017 30.03 846 24.98 29.3 84.7 18 2.8 37.1
17:35 1017 30.03 846 24.98 29.7 85.4 17 2.1 35.8
17:40 1017 30.03 846 24.98 29.6 85.4 18 3.2 37.8
17:45 1017 30.03 846 24.98 28.8 83.8 19 3.5 38.4
17:50 1017 30.03 846 24.98 28.3 83 19 2.5 36.4
17:55 1017 30.03 846 24.98 28.3 82.9 19 2.7 36.8
18:00 1017 30.03 846 24.98 28.4 83.1 19 3.1 37.6
18:05 1017 30.03 846 24.98 28.5 83.2 18 2.4 36.3
18:10 1017 30.03 846 24.98 28.9 84 18 2.8 37.1
18:15 1017 30.03 846 24.98 29.3 84.8 18 3.1 37.5
18:20 1017 30.03 846 24.98 29.5 85.2 18 3.1 37.7
18:25 1017 30.03 846 24.98 29.2 84.5 17 2.3 36.1
18:30 1016 30 846 24.98 28.8 83.8 19 3.4 38.1
18:35 1017 30.03 846 24.98 28.5 83.3 19 3 37.4
18:40 1017 30.03 846 24.98 28.4 83 19 2.6 36.7
18:45 1017 30.03 846 24.98 28.2 82.8 20 3.6 38.4
18:50 1017 30.03 846 24.98 28.3 82.9 22 5.1 41.1
18:55 1017 30.03 846 24.98 28.2 82.7 19 2.5 36.5
19:00 1017 30.03 846 24.98 28.1 82.6 18 2.2 35.9
19:05 1016 30 846 24.98 28.2 82.8 19 2.5 36.5
19:10 1017 30.03 846 24.98 28.1 82.6 20 3 37.4
19:15 1017 30.03 846 24.98 27.9 82.2 21 4.1 39.4
19:20 1017 30.03 846 24.98 27.6 81.8 23 4.8 40.6
19:25 1017 30.03 846 24.98 27.4 81.4 25 6 42.8
19:30 1017 30.03 846 24.98 27.2 80.9 26 6.4 43.5
19:35 1017 30.03 846 24.98 26.9 80.4 28 7.1 44.7
19:40 1017 30.03 846 24.98 26.7 80.1 28 7.2 44.9
19:45 1017 30.03 846 24.98 26.6 79.9 29 7.3 45.2
19:50 1017 30.03 846 24.98 26.4 79.6 31 8.1 46.7
19:55 1017 30.03 846 24.98 26.3 79.3 33 9.2 48.5
20:00 1017 30.03 846 24.98 26 78.8 34 9.1 48.4
20:05 1017 30.03 846 24.98 25.5 77.9 36 9.6 49.2
20:10 1016 30 846 24.98 25 76.9 37 9.5 49.1
20:15 1017 30.03 846 24.98 24.5 76 37 9.2 48.5
20:20 1017 30.03 846 24.98 23.9 75.1 40 9.5 49.2
20:25 1017 30.03 846 24.98 23.5 74.3 43 10.5 51
20:30 1017 30.03 846 24.98 23 73.4 44 10.4 50.7
20:35 1017 30.03 846 24.98 22.4 72.3 42 9.2 48.5
20:40 1017 30.03 846 24.98 22.3 72.1 37 7.1 44.8
20:45 1017 30.03 846 24.98 22.3 72.1 36 6.5 43.7
20:50 1017 30.03 846 24.98 21.8 71.3 37 6.6 43.9
20:55 1017 30.03 846 24.98 21.5 70.7 37 6.5 43.7
21:00 1017 30.03 846 24.98 21.3 70.3 37 6.3 43.3
21:05 1017 30.03 846 24.98 21.5 70.7 36 6 42.7
21:10 1017 30.03 846 24.98 21.6 70.9 36 6.1 43
21:15 1017 30.03 846 24.98 21.6 70.8 34 5.3 41.5
21:20 1017 30.03 847 25.01 21.9 71.4 33 5.2 41.4
21:25 1017 30.03 847 25.01 22.2 71.9 33 5.2 41.3
21:30 1017 30.03 847 25.01 22.4 72.3 32 5.3 41.5
21:35 1017 30.03 847 25.01 22.5 72.5 33 5.5 41.9
21:40 1017 30.03 847 25.01 22.4 72.3 33 5.6 42
21:45 1017 30.03 846 24.98 22.3 72.2 33 5.4 41.7
21:50 1017 30.03 846 24.98 22.6 72.7 32 5.3 41.5
21:55 1017 30.03 846 24.98 23 73.4 32 5.5 41.9
22:00 1017 30.03 846 24.98 23.2 73.7 31 5.4 41.8
22:05 1017 30.03 846 24.98 23.3 73.9 31 5.6 42.1
22:10 1017 30.03 846 24.98 23.2 73.8 32 5.6 42.1
22:15 1018 30.06 847 25.01 23.2 73.7 32 5.9 42.7
22:20 1018 30.06 847 25.01 23.2 73.7 32 5.9 42.6
22:25 1018 30.06 847 25.01 23.3 73.9 32 5.9 42.7
22:30 1018 30.06 847 25.01 23.2 73.8 32 6 42.7
22:35 1018 30.06 848 25.04 23.1 73.5 38 8.1 46.6
22:40 1018 30.06 847 25.01 21.9 71.4 43 8.7 47.7
22:45 1018 30.06 847 25.01 21.4 70.4 38 6.7 44.1
22:50 1018 30.06 847 25.01 22.6 72.6 34 6.1 43
22:55 1018 30.06 847 25.01 22.4 72.4 37 7.2 44.9
23:00 1018 30.06 847 25.01 21.6 70.9 36 6.1 42.9
23:05 1018 30.06 847 25.01 21.7 71 37 6.3 43.4
23:10 1018 30.06 847 25.01 21.4 70.6 38 6.8 44.2
23:15 1018 30.06 847 25.01 20.8 69.4 43 7.8 46
23:20 1018 30.06 847 25.01 20.4 68.8 45 8.2 46.7
23:25 1018 30.06 847 25.01 20.2 68.3 44 7.6 45.7
23:30 1018 30.06 847 25.01 20 68 46 8.3 47
23:35 1018 30.06 847 25.01 19.7 67.5 50 9.2 48.6
23:40 1018 30.06 847 25.01 18.7 65.7 59 10.6 51.1
23:45 1018 30.06 847 25.01 18.5 65.2 52 8.4 47.1
23:50 1018 30.06 847 25.01 19.3 66.7 51 8.9 48
23:55 1018 30.06 848 25.04 19.3 66.7 49 8.5 47.2
24:00 1018 30.06 848 25.04 19.2 66.6 51 8.9 48